EDT,Max TemperatureF,Mean TemperatureF,Min TemperatureF,Max Dew PointF,MeanDew PointF,Min DewpointF,Max Humidity, Mean Humidity, Min Humidity, Max Sea Level PressureIn, Mean Sea Level PressureIn, Min Sea Level PressureIn, Max VisibilityMiles, Mean VisibilityMiles, Min VisibilityMiles, Max Wind SpeedMPH, Mean Wind SpeedMPH, Max Gust SpeedMPH,PrecipitationIn, CloudCover, Events, WindDirDegrees
2013-4-1,72,60,50,57,50,37,100,76,32,30.04,29.95,29.87,10,8,1,7,1,,0.03,4,Rain,347
2013-4-2,61,52,44,40,31,26,71,46,30,30.20,30.13,30.05,10,10,10,9,2,,0.00,3,,352
2013-4-3,57,50,43,48,34,26,97,57,36,30.19,30.16,30.11,10,10,7,8,5,,0.13,5,Rain,39
2013-4-4,46,44,42,45,41,39,100,90,83,30.14,30.06,29.99,10,7,2,14,8,26,0.51,8,Rain,89
2013-4-5,64,52,40,45,41,33,100,79,31,30.09,30.01,29.97,10,10,4,12,2,21,T,5,,352
2013-4-6,71,52,33,44,39,34,100,63,29,30.19,30.13,30.08,10,10,7,10,2,17,0.00,0,,151
2013-4-7,75,59,42,50,45,41,90,57,35,30.19,30.11,30.04,10,10,10,12,6,18,0.00,1,,166
2013-4-8,78,64,50,56,52,48,100,71,41,30.13,30.07,30.03,10,10,10,14,6,22,0.00,3,,170
2013-4-9,82,66,50,59,54,51,100,70,39,30.18,30.10,30.04,10,10,6,13,3,18,0.00,1,,152
2013-4-10,84,69,53,60,56,53,100,70,40,30.11,30.01,29.90,10,10,6,14,4,18,0.00,2,,163
2013-4-11,79,68,57,67,61,55,93,77,60,29.93,29.79,29.62,10,8,2,13,7,18,0.89,5,Rain-Thunderstorm,165
2013-4-12,67,58,48,64,51,38,100,69,37,29.95,29.80,29.64,10,10,5,14,3,22,0.08,6,Rain,193
2013-4-13,75,60,44,45,41,37,89,59,29,30.08,30.01,29.94,10,10,10,13,2,18,0.00,2,,357
2013-4-14,61,51,41,55,49,41,100,78,55,30.05,29.97,29.88,10,10,7,15,4,25,0.13,4,Rain,116
2013-4-15,76,66,56,58,57,54,100,77,54,30.12,30.01,29.93,10,10,10,12,3,15,0.00,6,,132
2013-4-16,81,71,61,65,62,58,100,77,54,30.25,30.17,30.11,10,10,8,13,4,16,T,6,,116
2013-4-17,84,72,60,68,63,60,100,76,51,30.21,30.13,30.05,10,9,5,13,3,20,0.00,5,Thunderstorm,90
2013-4-18,80,69,57,62,58,56,100,73,45,30.06,29.98,29.86,10,10,8,20,7,25,0.00,1,,152
2013-4-19,73,57,41,67,52,39,100,82,64,30.08,29.90,29.74,10,7,1,18,4,31,0.62,6,Rain,168
2013-4-20,62,49,35,38,34,30,92,62,32,30.25,30.19,30.10,10,10,10,16,4,23,0.00,0,,356
2013-4-21,69,51,33,42,38,34,100,67,34,30.33,30.28,30.22,10,10,10,14,4,23,0.00,0,,86
2013-4-22,70,60,50,51,43,38,93,67,40,30.31,30.23,30.14,10,10,10,13,6,20,0.00,1,,81
2013-4-23,74,60,46,50,43,36,77,58,38,30.22,30.15,30.06,10,10,10,14,5,21,0.00,0,,132
2013-4-24,73,62,50,64,58,49,100,81,61,30.19,30.10,30.05,10,8,2,18,6,25,0.18,6,Rain,183
2013-4-25,68,54,39,50,40,27,93,57,21,30.33,30.26,30.19,10,10,10,14,3,20,0.00,1,,345
2013-4-26,76,56,36,52,41,36,100,64,27,30.37,30.31,30.24,10,10,10,13,3,21,0.00,1,,117
2013-4-27,70,64,57,57,53,45,86,67,48,30.29,30.21,30.12,10,9,2,13,7,22,0.35,7,Rain-Thunderstorm,82
2013-4-28,62,60,57,62,58,55,100,100,100,30.19,30.07,29.99,10,6,0,13,6,22,2.07,8,Fog-Rain-Thunderstorm,111
2013-4-29,75,63,51,61,56,52,100,73,46,30.06,30.01,29.92,10,10,8,9,1,14,0.00,5,,102
2013-4-30,80,64,48,62,56,48,100,72,43,30.07,30.02,29.95,10,6,0,10,3,13,0.00,5,Fog,89